Montreal, Canada
Current Conditions -  °F | °C
As of 6:00 AM on Thursday 23 Oct 2014 (Local Time) from CYHU Reporting Station
Overcast Overcast  
Wind Chill: 37°   Ceiling: 4800
Heat Index: 45°   Visibility: 9mi
Dew Point: 36°   Wind: 17mph
Humidity: 71%   Direction: 30°NNE
Pressure: 30.1"   Gusts: 29mph
Location:  45.51°N, 73.55°W
Report Text: CYHU 231000Z AUTO 03015G25KT 9SM OVC048 07/02 A3010 RMK SLP195
Loading
Personal Weather Stations






























Interactive Weather Map New forecast layout! Learn more

10-Day Weather Forecast

Advertisements
Track Severe Weather on mobile